Gladys S — WDB9526 — position and weather

sailwx.info

Track history (hours):
 
Tides and Currents Weather Stations Pressure Air Temp Water Temp Dewpoint Dewpoint Depression Visibility Wind Speed Wind Dir Waves Ship Positions

Gladys S

Owner: AMERICAN WORKBOATS, TERMINAL ISLAND, CA. More information available from US FCC via Universal Licensing System and Coast Guard Vessel Documentation Center.

Last reported at 2018-Feb-20 00:35 UTC. Time now 2018-Feb-21 06:54 UTC.
Position N 33°44' W 118°16'.

; draft 6.9 m.

Type: Military. MMSI: 366977850.

Date/timePositionNaut miles runAvg speedWind from/ knotsBaromVisibWave heightAir tempDewpointWater temp
2018-Feb-20 00:35N 33°44' W 118°16'0 0.4
2018-Feb-20 00:30N 33°44' W 118°16'3 7.0
2018-Feb-20 00:00N 33°43' W 118°12'2 3.1
2018-Feb-19 23:28N 33°44' W 118°10'0 0.1
2018-Feb-19 23:00N 33°44' W 118°10'4 9.1
2018-Feb-19 22:30N 33°43' W 118°15'1 2.8
2018-Feb-19 22:01N 33°44' W 118°16'0 0.1
2018-Feb-19 21:31N 33°44' W 118°16'0 0.0
2018-Feb-18 06:44N 33°44' W 118°16'0 0.3
2018-Feb-18 06:30N 33°44' W 118°16'2 4.1
2018-Feb-18 05:57N 33°43' W 118°13'0 0.1
2018-Feb-18 05:05N 33°43' W 118°13'0 0.0
2018-Feb-18 04:59N 33°43' W 118°13'0 0.2
2018-Feb-18 04:30N 33°43' W 118°13'2 3.4
2018-Feb-18 04:00N 33°43' W 118°15'  
2018-Feb-15 19:34N 33°44' W 118°16'0 1.1
2018-Feb-15 19:31N 33°44' W 118°16'4 7.6
2018-Feb-15 19:00N 33°41' W 118°12'3 6.9
2018-Feb-15 18:30N 33°41' W 118°08'0 0.0
2018-Feb-15 18:00N 33°41' W 118°08'713.8
2018-Feb-15 17:30N 33°44' W 118°16'0 0.0
2018-Feb-14 22:18N 33°44' W 118°16'0 0.0
2018-Feb-12 19:40N 33°44' W 118°16'1 7.5
2018-Feb-12 19:30N 33°43' W 118°15'714.4
2018-Feb-12 19:00N 33°41' W 118°07'0 0.2
2018-Feb-12 18:30N 33°41' W 118°07'0 0.2
2018-Feb-12 18:00N 33°41' W 118°07'612.3
2018-Feb-12 17:31N 33°42' W 118°14'  
2018-Feb-10 05:00N 33°44' W 118°16'  
Track history (hours):
 
Tides and Currents Weather Stations Pressure Air Temp Water Temp Dewpoint Dewpoint Depression Visibility Wind Speed Wind Dir Waves Ship Positions

Gladys S

Owner: AMERICAN WORKBOATS, TERMINAL ISLAND, CA. More information available from US FCC via Universal Licensing System and Coast Guard Vessel Documentation Center.

Last reported at 2018-Feb-20 00:35 UTC. Time now 2018-Feb-21 06:54 UTC.
Position N 33°44' W 118°16'.

; draft 6.9 m.

Type: Military. MMSI: 366977850.

Date/timePositionNaut miles runAvg speedWind from/ knotsBaromVisibWave heightAir tempDewpointWater temp
2018-Feb-20 00:35N 33°44' W 118°16'0 0.4
2018-Feb-20 00:30N 33°44' W 118°16'3 7.0
2018-Feb-20 00:00N 33°43' W 118°12'2 3.1
2018-Feb-19 23:28N 33°44' W 118°10'0 0.1
2018-Feb-19 23:00N 33°44' W 118°10'4 9.1
2018-Feb-19 22:30N 33°43' W 118°15'1 2.8
2018-Feb-19 22:01N 33°44' W 118°16'0 0.1
2018-Feb-19 21:31N 33°44' W 118°16'0 0.0
2018-Feb-18 06:44N 33°44' W 118°16'0 0.3
2018-Feb-18 06:30N 33°44' W 118°16'2 4.1
2018-Feb-18 05:57N 33°43' W 118°13'0 0.1
2018-Feb-18 05:05N 33°43' W 118°13'0 0.0
2018-Feb-18 04:59N 33°43' W 118°13'0 0.2
2018-Feb-18 04:30N 33°43' W 118°13'2 3.4
2018-Feb-18 04:00N 33°43' W 118°15'  
2018-Feb-15 19:34N 33°44' W 118°16'0 1.1
2018-Feb-15 19:31N 33°44' W 118°16'4 7.6
2018-Feb-15 19:00N 33°41' W 118°12'3 6.9
2018-Feb-15 18:30N 33°41' W 118°08'0 0.0
2018-Feb-15 18:00N 33°41' W 118°08'713.8
2018-Feb-15 17:30N 33°44' W 118°16'0 0.0
2018-Feb-14 22:18N 33°44' W 118°16'0 0.0
2018-Feb-12 19:40N 33°44' W 118°16'1 7.5
2018-Feb-12 19:30N 33°43' W 118°15'714.4
2018-Feb-12 19:00N 33°41' W 118°07'0 0.2
2018-Feb-12 18:30N 33°41' W 118°07'0 0.2
2018-Feb-12 18:00N 33°41' W 118°07'612.3
2018-Feb-12 17:31N 33°42' W 118°14'  
2018-Feb-10 05:00N 33°44' W 118°16'  

Dump ship's entire track history